createdAt,value
2018-12-24T00:02:27.997Z,76.40
2018-12-24T00:04:56.300Z,76.50
2018-12-24T00:07:24.642Z,76.30
2018-12-24T00:09:52.961Z,76.40
2018-12-24T00:12:21.330Z,76.20
2018-12-24T00:14:49.653Z,76.20
2018-12-24T00:17:18.068Z,76.30
2018-12-24T00:19:46.386Z,76.20
2018-12-24T00:22:14.719Z,76.20
2018-12-24T00:24:43.049Z,76.30
2018-12-24T00:27:11.396Z,76.20
2018-12-24T00:29:39.717Z,76.30
2018-12-24T00:32:08.064Z,76.40
2018-12-24T00:34:36.378Z,76.50
2018-12-24T00:37:04.719Z,76.50
2018-12-24T00:39:33.057Z,76.40
2018-12-24T00:42:01.406Z,76.40
2018-12-24T00:44:29.735Z,76.40
2018-12-24T00:46:58.109Z,76.50
2018-12-24T00:49:26.445Z,76.60
2018-12-24T00:51:54.805Z,76.80
2018-12-24T00:54:23.206Z,76.70
2018-12-24T00:56:51.541Z,76.90
2018-12-24T00:59:19.874Z,76.60
2018-12-24T01:01:48.955Z,77.40
2018-12-24T01:04:17.420Z,76.90
2018-12-24T01:06:45.762Z,76.80
2018-12-24T01:09:14.086Z,77.00
2018-12-24T01:11:42.430Z,76.80
2018-12-24T01:14:10.749Z,76.90
2018-12-24T01:16:39.084Z,77.00
2018-12-24T01:19:07.424Z,77.10
2018-12-24T01:21:35.752Z,77.20
2018-12-24T01:24:04.152Z,77.10
2018-12-24T01:26:32.500Z,77.20
2018-12-24T01:29:00.835Z,77.40
2018-12-24T01:31:29.160Z,77.40
2018-12-24T01:33:57.530Z,77.30
2018-12-24T01:36:25.840Z,77.40
2018-12-24T01:38:54.162Z,77.30
2018-12-24T01:41:22.493Z,77.40
2018-12-24T01:43:50.843Z,77.50
2018-12-24T01:46:19.169Z,77.30
2018-12-24T01:48:47.510Z,77.50
2018-12-24T01:51:15.849Z,77.50
2018-12-24T01:53:44.168Z,77.60
2018-12-24T01:56:12.509Z,77.50
2018-12-24T01:58:40.918Z,77.40
2018-12-24T02:01:09.301Z,77.50
2018-12-24T02:03:37.673Z,77.30
2018-12-24T02:06:05.996Z,77.50
2018-12-24T02:08:34.332Z,77.70
2018-12-24T02:11:02.652Z,77.40
2018-12-24T02:13:30.987Z,77.50
2018-12-24T02:15:59.325Z,77.30
2018-12-24T02:18:27.646Z,77.40
2018-12-24T02:20:55.983Z,77.40
2018-12-24T02:23:24.313Z,77.50
2018-12-24T02:25:52.645Z,77.30
2018-12-24T02:28:20.974Z,77.30
2018-12-24T02:30:49.318Z,77.80
2018-12-24T02:33:17.648Z,77.20
2018-12-24T02:35:45.991Z,77.00
2018-12-24T02:38:14.301Z,77.10
2018-12-24T02:40:42.634Z,77.20
2018-12-24T02:43:10.963Z,77.00
2018-12-24T02:45:39.313Z,77.00
2018-12-24T02:48:07.647Z,77.10
2018-12-24T02:50:35.973Z,77.00
2018-12-24T02:53:04.293Z,77.00
2018-12-24T02:55:32.621Z,77.10
2018-12-24T02:58:00.950Z,77.10
2018-12-24T03:00:29.280Z,77.00
2018-12-24T03:02:57.620Z,77.00
2018-12-24T03:05:25.965Z,76.90
2018-12-24T03:07:54.359Z,77.00
2018-12-24T03:10:22.682Z,77.00
2018-12-24T03:12:51.027Z,77.00
2018-12-24T03:15:19.389Z,77.20
2018-12-24T03:17:47.818Z,77.90
2018-12-24T03:20:16.140Z,77.10
2018-12-24T03:22:44.475Z,77.00
2018-12-24T03:25:12.810Z,76.90
2018-12-24T03:27:41.157Z,76.90
2018-12-24T03:30:09.474Z,76.70
2018-12-24T03:32:37.791Z,76.60
2018-12-24T03:35:06.126Z,76.50
2018-12-24T03:37:34.448Z,76.40
2018-12-24T03:40:02.848Z,76.40
2018-12-24T03:42:31.179Z,76.20
2018-12-24T03:44:59.524Z,76.10
2018-12-24T03:47:27.849Z,76.20
2018-12-24T03:49:56.471Z,76.20
2018-12-24T03:52:24.785Z,76.20
2018-12-24T03:54:53.146Z,76.10
2018-12-24T03:57:21.458Z,76.20
2018-12-24T03:59:49.793Z,76.10
2018-12-24T04:02:18.126Z,76.20
2018-12-24T04:04:46.553Z,76.20
2018-12-24T04:07:14.882Z,75.90
2018-12-24T04:09:43.233Z,76.10
2018-12-24T04:12:11.550Z,76.30
2018-12-24T04:14:39.894Z,75.90
2018-12-24T04:17:08.234Z,75.70
2018-12-24T04:19:40.794Z,75.80
2018-12-24T04:22:09.140Z,75.60
2018-12-24T04:24:37.485Z,74.90
2018-12-24T04:27:05.807Z,75.60
2018-12-24T04:29:34.214Z,75.70
2018-12-24T04:32:02.549Z,75.70
2018-12-24T04:34:30.857Z,75.60
2018-12-24T04:36:59.193Z,75.60
2018-12-24T04:39:27.522Z,75.50
2018-12-24T04:41:55.899Z,75.40
2018-12-24T04:44:24.310Z,75.40
2018-12-24T04:46:52.648Z,75.20
2018-12-24T04:49:20.979Z,75.40
2018-12-24T04:51:49.343Z,75.20
2018-12-24T04:54:17.661Z,75.10
2018-12-24T04:56:46.000Z,74.80
2018-12-24T04:59:14.313Z,74.50
2018-12-24T05:01:42.649Z,74.50
2018-12-24T05:04:10.988Z,74.50
2018-12-24T05:06:39.684Z,74.50
2018-12-24T05:09:08.002Z,74.40
2018-12-24T05:11:36.406Z,74.40
2018-12-24T05:14:04.729Z,74.20
2018-12-24T05:16:33.065Z,74.20
2018-12-24T05:19:01.394Z,74.20
2018-12-24T05:21:29.717Z,74.10
2018-12-24T05:23:58.069Z,74.10
2018-12-24T05:26:26.393Z,74.00
2018-12-24T05:28:54.749Z,74.20
2018-12-24T05:31:23.065Z,74.10
2018-12-24T05:33:51.401Z,74.20
2018-12-24T05:36:19.789Z,74.20
2018-12-24T05:38:48.139Z,74.00
2018-12-24T05:41:16.461Z,74.00
2018-12-24T05:43:49.426Z,74.00
2018-12-24T05:46:14.895Z,73.80
2018-12-24T05:48:43.249Z,73.60
2018-12-24T05:51:11.568Z,73.70
2018-12-24T05:53:39.914Z,73.40
2018-12-24T05:56:08.233Z,72.80
2018-12-24T05:58:36.566Z,72.50
2018-12-24T06:01:04.956Z,72.10
2018-12-24T06:03:33.285Z,71.70
2018-12-24T06:06:01.619Z,71.40
2018-12-24T06:08:29.972Z,71.40
2018-12-24T06:10:58.305Z,71.40
2018-12-24T06:13:26.651Z,71.10
2018-12-24T06:15:54.970Z,70.90
2018-12-24T06:18:23.318Z,71.40
2018-12-24T06:20:51.629Z,70.30
2018-12-24T06:23:19.966Z,70.20
2018-12-24T06:25:48.297Z,69.90
2018-12-24T06:28:16.623Z,69.70
2018-12-24T06:30:44.950Z,69.20
2018-12-24T06:33:13.272Z,69.20
2018-12-24T06:35:41.628Z,69.00
2018-12-24T06:38:09.957Z,69.00
2018-12-24T06:40:38.298Z,68.80
2018-12-24T06:43:06.616Z,68.70
2018-12-24T06:45:34.959Z,68.50
2018-12-24T06:48:03.290Z,68.50
2018-12-24T06:50:31.629Z,68.40
2018-12-24T06:52:59.965Z,68.40
2018-12-24T06:55:28.321Z,68.20
2018-12-24T06:57:56.664Z,67.90
2018-12-24T07:00:24.987Z,67.90
2018-12-24T07:02:53.317Z,68.00
2018-12-24T07:05:21.646Z,67.90
2018-12-24T07:07:49.974Z,68.00
2018-12-24T07:10:18.305Z,67.90
2018-12-24T07:12:46.642Z,68.00
2018-12-24T07:15:14.991Z,67.80
2018-12-24T07:17:43.309Z,67.90
2018-12-24T07:20:11.660Z,68.10
2018-12-24T07:22:39.978Z,68.10
2018-12-24T07:25:08.325Z,68.00
2018-12-24T07:27:36.659Z,68.10
2018-12-24T07:30:05.569Z,68.20
2018-12-24T07:32:33.899Z,68.00
2018-12-24T07:35:02.231Z,68.30
2018-12-24T07:37:30.712Z,68.20
2018-12-24T07:39:59.047Z,68.30
2018-12-24T07:42:27.457Z,68.10
2018-12-24T07:44:55.855Z,68.30
2018-12-24T07:47:24.197Z,68.50
2018-12-24T07:49:52.515Z,68.50
2018-12-24T07:52:20.861Z,69.20
2018-12-24T07:54:49.197Z,68.40
2018-12-24T07:57:17.569Z,68.20
2018-12-24T07:59:45.935Z,68.00
2018-12-24T08:02:14.300Z,68.00
2018-12-24T08:04:42.634Z,67.80
2018-12-24T08:07:10.970Z,68.00
2018-12-24T08:09:39.294Z,68.10
2018-12-24T08:12:07.662Z,68.20
2018-12-24T08:14:35.998Z,68.10
2018-12-24T08:17:04.338Z,68.00
2018-12-24T08:19:32.696Z,68.00
2018-12-24T08:22:01.161Z,68.90
2018-12-24T08:24:29.500Z,67.90
2018-12-24T08:26:58.097Z,67.90
2018-12-24T08:29:26.482Z,68.10
2018-12-24T08:31:57.739Z,68.10
2018-12-24T08:34:26.081Z,68.00
2018-12-24T08:36:54.412Z,68.20
2018-12-24T08:39:22.749Z,68.40
2018-12-24T08:41:51.078Z,68.40
2018-12-24T08:44:19.413Z,68.40
2018-12-24T08:46:47.737Z,68.40
2018-12-24T08:49:16.084Z,68.40
2018-12-24T08:51:44.396Z,75.50
2018-12-24T08:54:12.748Z,72.00
2018-12-24T08:56:41.053Z,72.20
2018-12-24T08:59:09.391Z,70.40
2018-12-24T09:01:37.719Z,70.20
2018-12-24T09:04:06.042Z,69.60
2018-12-24T09:06:34.397Z,69.10
2018-12-24T09:09:03.676Z,68.90
2018-12-24T09:11:31.997Z,68.80
2018-12-24T09:14:00.357Z,69.20
2018-12-24T09:16:28.685Z,69.10
2018-12-24T09:18:57.014Z,69.00
2018-12-24T09:21:25.336Z,68.80
2018-12-24T09:23:53.687Z,68.30
2018-12-24T09:26:22.019Z,68.20
2018-12-24T09:28:50.342Z,68.50
2018-12-24T09:31:18.681Z,68.90
2018-12-24T09:33:47.018Z,68.50
2018-12-24T09:36:15.343Z,68.50
2018-12-24T09:38:43.656Z,68.40
2018-12-24T09:41:12.029Z,66.40
2018-12-24T09:43:40.435Z,65.60
2018-12-24T09:46:08.784Z,65.00
2018-12-24T09:48:37.111Z,63.20
2018-12-24T09:51:05.726Z,61.50
2018-12-24T09:53:34.055Z,61.60
2018-12-24T09:56:02.400Z,59.60
2018-12-24T09:58:30.726Z,58.30
2018-12-24T10:00:59.086Z,57.00
2018-12-24T10:03:27.494Z,56.20
2018-12-24T10:05:56.764Z,54.50
2018-12-24T10:08:25.102Z,53.30
2018-12-24T10:10:53.432Z,52.40
2018-12-24T10:13:21.769Z,50.90
2018-12-24T10:15:50.110Z,50.10
2018-12-24T10:18:18.432Z,49.40
2018-12-24T10:20:46.799Z,48.50
2018-12-24T10:23:15.126Z,47.80
2018-12-24T10:25:43.475Z,46.10
2018-12-24T10:28:11.789Z,46.00
2018-12-24T10:30:40.141Z,45.10
2018-12-24T10:33:08.481Z,44.10
2018-12-24T10:35:36.826Z,43.70
2018-12-24T10:38:05.254Z,42.80
2018-12-24T10:40:35.028Z,41.50
2018-12-24T10:43:03.388Z,40.80
2018-12-24T10:45:31.729Z,41.50
2018-12-24T10:48:00.080Z,43.00
2018-12-24T10:50:28.492Z,44.30
2018-12-24T10:52:56.816Z,44.40
2018-12-24T10:55:25.155Z,42.90
2018-12-24T10:57:53.518Z,42.90
2018-12-24T11:00:21.859Z,43.00
2018-12-24T11:02:50.181Z,42.40
2018-12-24T11:05:18.526Z,41.20
2018-12-24T11:07:46.857Z,41.30
2018-12-24T11:10:15.186Z,42.60
2018-12-24T11:12:43.539Z,43.10
2018-12-24T11:15:11.882Z,42.00
2018-12-24T11:17:40.217Z,43.00
2018-12-24T11:20:08.570Z,43.60
2018-12-24T11:22:36.973Z,43.00
2018-12-24T11:25:05.315Z,43.70
2018-12-24T11:27:33.653Z,43.70
2018-12-24T11:30:01.982Z,44.50
2018-12-24T11:32:30.346Z,45.10
2018-12-24T11:34:58.669Z,45.50
2018-12-24T11:37:27.023Z,46.10
2018-12-24T11:39:55.377Z,47.60
2018-12-24T11:42:23.721Z,48.30
2018-12-24T11:44:52.069Z,48.30
2018-12-24T11:47:20.399Z,48.80
2018-12-24T11:49:48.757Z,49.50
2018-12-24T11:52:17.093Z,50.00
2018-12-24T11:54:45.433Z,50.50
2018-12-24T11:57:13.754Z,50.60
2018-12-24T11:59:42.102Z,51.10
2018-12-24T12:02:10.443Z,51.60
2018-12-24T12:04:38.852Z,52.00
2018-12-24T12:07:07.177Z,52.30
2018-12-24T12:09:35.536Z,52.70
2018-12-24T12:12:03.864Z,52.80
2018-12-24T12:14:32.217Z,52.80
2018-12-24T12:17:00.550Z,52.90
2018-12-24T12:19:30.520Z,53.00
2018-12-24T12:21:58.853Z,53.00
2018-12-24T12:24:27.196Z,53.20
2018-12-24T12:26:55.542Z,53.40
2018-12-24T12:29:23.869Z,53.50
2018-12-24T12:31:52.187Z,54.70
2018-12-24T12:34:20.540Z,54.80
2018-12-24T12:36:48.864Z,54.80
2018-12-24T12:39:17.189Z,55.10
2018-12-24T12:41:45.546Z,55.10
2018-12-24T12:44:13.849Z,55.40
2018-12-24T12:46:42.176Z,55.70
2018-12-24T12:49:10.686Z,55.80
2018-12-24T12:51:39.029Z,56.00
2018-12-24T12:54:07.351Z,56.50
2018-12-24T12:56:35.673Z,56.30
2018-12-24T12:59:03.991Z,56.40
2018-12-24T13:01:32.343Z,56.40
2018-12-24T13:04:00.669Z,56.50
2018-12-24T13:06:29.010Z,56.60
2018-12-24T13:08:57.324Z,56.90
2018-12-24T13:11:25.666Z,56.70
2018-12-24T13:13:53.992Z,56.90
2018-12-24T13:16:31.071Z,57.00
2018-12-24T13:18:59.327Z,56.90
2018-12-24T13:21:28.006Z,56.90
2018-12-24T13:24:05.759Z,57.00
2018-12-24T13:26:35.514Z,56.90
2018-12-24T13:29:06.189Z,57.00
2018-12-24T13:31:38.395Z,57.40
2018-12-24T13:34:06.982Z,57.50
2018-12-24T13:36:44.808Z,58.00
2018-12-24T13:39:19.240Z,58.40
2018-12-24T13:41:54.133Z,58.00
2018-12-24T13:44:22.470Z,58.00
2018-12-24T13:46:50.812Z,58.00
2018-12-24T13:49:19.143Z,58.10
2018-12-24T13:51:47.485Z,58.00
2018-12-24T13:54:15.810Z,57.90
2018-12-24T13:56:44.138Z,58.00
2018-12-24T13:59:12.602Z,58.00
2018-12-24T14:01:40.942Z,58.00
2018-12-24T14:04:49.835Z,57.90
2018-12-24T14:07:18.788Z,57.80
2018-12-24T14:09:47.179Z,57.70
2018-12-24T14:12:15.436Z,57.90
2018-12-24T14:14:43.665Z,58.00
2018-12-24T14:17:11.992Z,58.10
2018-12-24T14:19:40.275Z,58.10
2018-12-24T14:22:08.498Z,58.30
2018-12-24T14:24:36.734Z,58.50
2018-12-24T14:27:04.965Z,58.50
2018-12-24T14:29:33.569Z,58.60
2018-12-24T14:32:01.784Z,58.70
2018-12-24T14:34:30.017Z,58.70
2018-12-24T14:36:58.377Z,58.80
2018-12-24T14:39:26.592Z,59.00
2018-12-24T14:41:54.829Z,59.10
2018-12-24T14:44:23.064Z,60.00
2018-12-24T14:46:51.292Z,59.30
2018-12-24T14:49:19.528Z,59.60
2018-12-24T14:51:47.785Z,59.50
2018-12-24T14:54:16.016Z,60.30
2018-12-24T14:56:44.249Z,59.70
2018-12-24T14:59:12.490Z,60.00
2018-12-24T15:01:40.723Z,59.70
2018-12-24T15:04:08.946Z,59.90
2018-12-24T15:06:37.164Z,60.10
2018-12-24T15:09:06.557Z,60.00
2018-12-24T15:11:34.786Z,60.20
2018-12-24T15:14:03.025Z,60.20
2018-12-24T15:16:34.791Z,60.20
2018-12-24T15:19:01.205Z,60.20
2018-12-24T15:21:29.429Z,60.20
2018-12-24T15:23:57.676Z,60.20
2018-12-24T15:26:25.905Z,60.10
2018-12-24T15:28:54.148Z,60.40
2018-12-24T15:31:41.804Z,60.50
2018-12-24T15:34:10.040Z,60.10
2018-12-24T15:36:38.280Z,60.40
2018-12-24T15:39:06.768Z,60.00
2018-12-24T15:41:35.040Z,60.00
2018-12-24T15:44:03.270Z,60.30
2018-12-24T15:46:31.513Z,60.30
2018-12-24T15:48:59.736Z,60.20
2018-12-24T15:51:27.978Z,60.30
2018-12-24T15:53:56.203Z,60.40
2018-12-24T15:56:24.442Z,60.40
2018-12-24T15:58:52.658Z,60.60
2018-12-24T16:01:22.166Z,60.60
2018-12-24T16:03:50.394Z,60.40
2018-12-24T16:06:38.070Z,60.50
2018-12-24T16:09:06.757Z,60.70
2018-12-24T16:11:35.022Z,60.70
2018-12-24T16:14:03.230Z,60.90
2018-12-24T16:16:31.481Z,60.90
2018-12-24T16:18:59.704Z,61.10
2018-12-24T16:21:27.968Z,61.40
2018-12-24T16:23:56.191Z,61.20
2018-12-24T16:26:24.429Z,60.90
2018-12-24T16:28:52.676Z,60.40
2018-12-24T16:31:20.937Z,60.60
2018-12-24T16:33:49.195Z,61.00
2018-12-24T16:36:17.431Z,60.70
2018-12-24T16:38:45.721Z,61.00
2018-12-24T16:41:13.960Z,60.90
2018-12-24T16:43:42.198Z,60.90
2018-12-24T16:46:10.426Z,61.10
2018-12-24T16:48:38.646Z,60.80
2018-12-24T16:51:06.886Z,61.00
2018-12-24T16:53:40.460Z,60.80
2018-12-24T16:56:05.085Z,60.80
2018-12-24T16:58:33.412Z,61.20
2018-12-24T17:01:01.667Z,60.90
2018-12-24T17:03:29.918Z,60.80
2018-12-24T17:05:58.168Z,60.70
2018-12-24T17:08:26.398Z,60.80
2018-12-24T17:10:54.684Z,60.90
2018-12-24T17:13:22.918Z,61.00
2018-12-24T17:15:51.216Z,61.20
2018-12-24T17:18:19.451Z,61.10
2018-12-24T17:20:47.703Z,61.40
2018-12-24T17:23:15.942Z,61.40
2018-12-24T17:25:44.161Z,61.50
2018-12-24T17:28:12.447Z,61.40
2018-12-24T17:30:40.663Z,61.30
2018-12-24T17:33:09.000Z,61.50
2018-12-24T17:35:37.373Z,61.70
2018-12-24T17:38:05.696Z,61.70
2018-12-24T17:40:33.909Z,62.10
2018-12-24T17:43:02.172Z,62.50
2018-12-24T17:45:30.382Z,62.10
2018-12-24T17:47:58.629Z,62.40
2018-12-24T17:50:26.855Z,62.20
2018-12-24T17:52:55.108Z,62.20
2018-12-24T17:55:23.347Z,62.00
2018-12-24T17:57:51.564Z,61.70
2018-12-24T18:00:19.796Z,61.80
2018-12-24T18:02:48.013Z,62.00
2018-12-24T18:05:16.241Z,62.00
2018-12-24T18:08:03.914Z,62.00
2018-12-24T18:10:32.135Z,62.20
2018-12-24T18:13:00.366Z,62.20
2018-12-24T18:15:28.666Z,62.50
2018-12-24T18:17:56.926Z,62.30
2018-12-24T18:20:25.195Z,62.50
2018-12-24T18:22:53.440Z,62.50
2018-12-24T18:25:21.700Z,62.40
2018-12-24T18:27:49.957Z,62.10
2018-12-24T18:30:20.902Z,62.50
2018-12-24T18:32:49.222Z,62.60
2018-12-24T18:35:17.580Z,62.70
2018-12-24T18:37:45.850Z,62.40
2018-12-24T18:40:14.087Z,62.30
2018-12-24T18:42:42.317Z,62.50
2018-12-24T18:45:10.560Z,62.50
2018-12-24T18:47:38.792Z,62.60
2018-12-24T18:50:07.613Z,62.80
2018-12-24T18:52:35.893Z,62.70
2018-12-24T18:55:04.527Z,62.60
2018-12-24T18:57:32.807Z,62.50
2018-12-24T19:00:01.071Z,62.10
2018-12-24T19:02:29.292Z,62.10
2018-12-24T19:04:57.529Z,62.20
2018-12-24T19:07:25.757Z,62.40
2018-12-24T19:09:53.985Z,62.40
2018-12-24T19:12:22.218Z,62.70
2018-12-24T19:14:50.452Z,62.50
2018-12-24T19:17:18.685Z,62.70
2018-12-24T19:19:46.913Z,62.60
2018-12-24T19:22:15.160Z,62.50
2018-12-24T19:24:43.395Z,62.70
2018-12-24T19:27:11.665Z,62.50
2018-12-24T19:29:40.040Z,62.40
2018-12-24T19:32:08.335Z,62.20
2018-12-24T19:34:36.581Z,62.40
2018-12-24T19:37:04.840Z,62.10
2018-12-24T19:39:33.117Z,62.20
2018-12-24T19:42:01.356Z,62.10
2018-12-24T19:44:29.597Z,62.20
2018-12-24T19:46:57.933Z,62.30
2018-12-24T19:49:26.349Z,62.00
2018-12-24T19:51:54.705Z,62.20
2018-12-24T19:54:22.971Z,62.10
2018-12-24T19:56:51.231Z,61.80
2018-12-24T19:59:19.499Z,61.80
2018-12-24T20:01:47.832Z,61.40
2018-12-24T20:04:17.513Z,61.90
2018-12-24T20:06:45.783Z,61.90
2018-12-24T20:09:14.045Z,61.40
2018-12-24T20:11:42.337Z,61.60
2018-12-24T20:14:10.601Z,61.40
2018-12-24T20:16:38.869Z,61.60
2018-12-24T20:19:07.133Z,61.30
2018-12-24T20:21:35.408Z,61.30
2018-12-24T20:24:03.720Z,61.30
2018-12-24T20:26:31.994Z,61.20
2018-12-24T20:29:00.305Z,60.80
2018-12-24T20:31:29.800Z,61.00
2018-12-24T20:33:58.038Z,61.00
2018-12-24T20:36:26.330Z,61.80
2018-12-24T20:38:54.596Z,60.80
2018-12-24T20:41:22.816Z,60.70
2018-12-24T20:43:51.082Z,60.70
2018-12-24T20:46:19.395Z,61.00
2018-12-24T20:48:47.632Z,60.70
2018-12-24T20:51:16.231Z,61.00
2018-12-24T20:53:44.804Z,60.90
2018-12-24T20:56:13.062Z,60.80
2018-12-24T20:58:41.401Z,60.60
2018-12-24T21:01:09.667Z,60.60
2018-12-24T21:03:37.938Z,60.60
2018-12-24T21:06:06.260Z,60.70
2018-12-24T21:08:34.560Z,60.60
2018-12-24T21:11:02.878Z,60.60
2018-12-24T21:13:31.248Z,60.70
2018-12-24T21:15:59.546Z,60.80
2018-12-24T21:18:27.800Z,60.80
2018-12-24T21:20:56.044Z,60.80
2018-12-24T21:23:24.311Z,60.80
2018-12-24T21:25:52.569Z,60.80
2018-12-24T21:28:20.940Z,61.10
2018-12-24T21:30:49.307Z,61.20
2018-12-24T21:33:17.576Z,61.20
2018-12-24T21:35:45.843Z,61.10
2018-12-24T21:38:14.132Z,61.00
2018-12-24T21:40:42.436Z,60.70
2018-12-24T21:43:10.681Z,61.00
2018-12-24T21:45:39.045Z,61.00
2018-12-24T21:48:07.353Z,61.00
2018-12-24T21:50:35.637Z,61.00
2018-12-24T21:53:03.908Z,61.10
2018-12-24T21:55:32.233Z,61.00
2018-12-24T21:58:01.585Z,60.80
2018-12-24T22:00:29.928Z,60.80
2018-12-24T22:02:58.200Z,61.10
2018-12-24T22:05:26.480Z,61.00
2018-12-24T22:07:56.805Z,61.00
2018-12-24T22:10:25.374Z,61.10
2018-12-24T22:12:53.697Z,61.00
2018-12-24T22:15:21.976Z,61.00
2018-12-24T22:17:50.227Z,60.70
2018-12-24T22:20:18.484Z,60.90
2018-12-24T22:22:48.084Z,60.80
2018-12-24T22:25:16.391Z,61.00
2018-12-24T22:27:44.658Z,61.00
2018-12-24T22:30:13.101Z,61.10
2018-12-24T22:32:41.420Z,61.10
2018-12-24T22:35:09.669Z,61.20
2018-12-24T22:37:39.567Z,61.20
2018-12-24T22:40:07.985Z,61.10
2018-12-24T22:42:36.336Z,61.30
2018-12-24T22:45:04.776Z,61.40
2018-12-24T22:47:33.049Z,61.60
2018-12-24T22:50:01.377Z,61.70
2018-12-24T22:52:29.646Z,61.70
2018-12-24T22:54:57.908Z,61.80
2018-12-24T22:57:26.255Z,62.00
2018-12-24T22:59:54.532Z,62.10
2018-12-24T23:02:22.809Z,61.70
2018-12-24T23:04:51.086Z,61.70
2018-12-24T23:07:19.379Z,61.70
2018-12-24T23:09:47.942Z,61.70
2018-12-24T23:12:16.309Z,62.20
2018-12-24T23:14:44.730Z,62.20
2018-12-24T23:17:13.099Z,62.10
2018-12-24T23:19:41.799Z,62.10
2018-12-24T23:22:11.134Z,62.30
2018-12-24T23:24:39.539Z,62.30
2018-12-24T23:27:07.857Z,62.50
2018-12-24T23:29:36.226Z,62.30
2018-12-24T23:32:04.568Z,62.20
2018-12-24T23:34:32.887Z,61.80
2018-12-24T23:37:01.212Z,61.60
2018-12-24T23:39:29.513Z,61.70
2018-12-24T23:41:57.892Z,61.60
2018-12-24T23:44:26.199Z,61.80
2018-12-24T23:46:54.580Z,61.40
2018-12-24T23:49:22.954Z,61.50
2018-12-24T23:51:51.288Z,61.50
2018-12-24T23:54:19.609Z,61.50
2018-12-24T23:56:47.968Z,61.60
2018-12-24T23:59:16.474Z,61.30
